Home > Products > Valid Products > TAF

000
FTUS41 KRNK 011720
TAFBLF
TAF
KBLF 011720Z 0118/0218 27011G19KT P6SM SCT040
     FM020100 23007KT P6SM SCT025
     FM021200 24007KT P6SM BKN035=



000
FTUS41 KRNK 011720
TAFLWB
TAF
KLWB 011720Z 0118/0218 26007KT P6SM SCT035 BKN045
     FM020700 23003KT P6SM SCT020
     FM021500 24006KT P6SM BKN035=



000
FTUS41 KRNK 011720
TAFDAN
TAF
KDAN 011720Z 0118/0218 29011KT P6SM FEW045
     FM012300 23005KT P6SM FEW050
     FM021100 24003KT 4SM BR FEW120
     FM021300 25006KT P6SM FEW120
      AMD NOT SKED=



000
FTUS41 KRNK 011720
TAFLYH
TAF
KLYH 011720Z 0118/0218 25008KT P6SM SCT040
     FM012300 24004KT P6SM SCT250
     FM021100 25003KT 5SM BR SKC
     FM021300 25006KT P6SM SKC=



000
FTUS41 KRNK 011720
TAFROA
TAF
KROA 011720Z 0118/0218 26008KT P6SM SCT035 BKN140
     FM012300 25006KT P6SM SCT250=



000
FTUS41 KRNK 011720
TAFROA
TAF
KROA 011720Z 0118/0218 26008KT P6SM SCT035 BKN140
     FM012300 25006KT P6SM SCT250=



000
FTUS41 KRNK 011720
TAFLYH
TAF
KLYH 011720Z 0118/0218 25008KT P6SM SCT040
     FM012300 24004KT P6SM SCT250
     FM021100 25003KT 5SM BR SKC
     FM021300 25006KT P6SM SKC=



000
FTUS41 KRNK 011720
TAFDAN
TAF
KDAN 011720Z 0118/0218 29011KT P6SM FEW045
     FM012300 23005KT P6SM FEW050
     FM021100 24003KT 4SM BR FEW120
     FM021300 25006KT P6SM FEW120
      AMD NOT SKED=



000
FTUS41 KRNK 011720
TAFBLF
TAF
KBLF 011720Z 0118/0218 27011G19KT P6SM SCT040
     FM020100 23007KT P6SM SCT025
     FM021200 24007KT P6SM BKN035=



000
FTUS41 KRNK 011720
TAFLWB
TAF
KLWB 011720Z 0118/0218 26007KT P6SM SCT035 BKN045
     FM020700 23003KT P6SM SCT020
     FM021500 24006KT P6SM BKN035=



000
FTUS41 KRNK 011553 AAB
TAFBLF
TAF AMD
KBLF 011553Z 0116/0212 27009G17KT P6SM SCT025
      TEMPO 0116/0117 BKN025
     FM011900 27011G20KT P6SM SCT040
     FM020300 24006KT P6SM BKN040
     FM020800 23005KT P6SM VCSH OVC035=



000
FTUS41 KRNK 011553 AAB
TAFBLF
TAF AMD
KBLF 011553Z 0116/0212 27009G17KT P6SM SCT025
      TEMPO 0116/0117 BKN025
     FM011900 27011G20KT P6SM SCT040
     FM020300 24006KT P6SM BKN040
     FM020800 23005KT P6SM VCSH OVC035=



000
FTUS41 KRNK 011553 AAA
TAFLWB
TAF AMD
KLWB 011553Z 0116/0212 27005KT P6SM SCT015 BKN021 OVC035
     FM011800 27008KT P6SM SCT045
     FM020000 24004KT P6SM BKN045
     FM020700 23003KT P6SM VCSH OVC040=



000
FTUS41 KRNK 011551 AAA
TAFDAN
TAF AMD
KDAN 011551Z 0116/0212 27008KT P6SM FEW100 BKN250
     FM020300 23004KT P6SM SCT250
      AMD NOT SKED=



000
FTUS41 KRNK 011432 AAA
TAFBLF
TAF AMD
KBLF 011432Z 0115/0212 26010G14KT P6SM BKN019 OVC035
     FM011900 27011G20KT P6SM SCT040
     FM020300 24006KT P6SM BKN040
     FM020800 23005KT P6SM VCSH OVC035=



000
FTUS41 KRNK 011432 AAA
TAFBLF
TAF AMD
KBLF 011432Z 0115/0212 26010G14KT P6SM BKN019 OVC035
     FM011900 27011G20KT P6SM SCT040
     FM020300 24006KT P6SM BKN040
     FM020800 23005KT P6SM VCSH OVC035=



000
FTUS41 KRNK 011132
TAFLWB
TAF
KLWB 011132Z 0112/0212 25004KT P6SM -RA SCT025 BKN050
      TEMPO 0112/0114 BKN025
     FM011400 26008KT P6SM BKN035
     FM011800 27008KT P6SM SCT045
     FM020000 24004KT P6SM BKN045
     FM020700 23003KT P6SM VCSH OVC040=



000
FTUS41 KRNK 011132
TAFBLF
TAF
KBLF 011132Z 0112/0212 25008KT P6SM -RA SCT015 BKN045
      TEMPO 0112/0114 BKN015
     FM011400 27012G20KT P6SM BKN030
     FM011900 27011G20KT P6SM SCT040
     FM020300 24006KT P6SM BKN040
     FM020800 23005KT P6SM VCSH OVC035=



000
FTUS41 KRNK 011132
TAFROA
TAF
KROA 011132Z 0112/0212 24006KT P6SM -RA SCT045 BKN070
     FM011430 26008G16KT P6SM BKN050
     FM011800 27010G18KT P6SM SCT060
     FM012300 28006KT P6SM SCT250
     FM020800 24005KT P6SM BKN080 BKN250=



000
FTUS41 KRNK 011132
TAFLYH
TAF
KLYH 011132Z 0112/0212 22005KT P6SM BKN070
     FM011500 23007KT P6SM SCT060
     FM011800 26008KT P6SM SCT070
     FM012300 24004KT P6SM SCT250
     FM021000 00000KT P6SM BKN080 BKN250=



000
FTUS41 KRNK 011132
TAFDAN
TAF
KDAN 011132Z 0112/0212 23005KT P6SM BKN100
     FM011500 26008G16KT P6SM SCT060
     FM020300 23004KT P6SM SCT250
      AMD NOT SKED=



000
FTUS41 KRNK 011132
TAFBLF
TAF
KBLF 011132Z 0112/0212 25008KT P6SM -RA SCT015 BKN045
      TEMPO 0112/0114 BKN015
     FM011400 27012G20KT P6SM BKN030
     FM011900 27011G20KT P6SM SCT040
     FM020300 24006KT P6SM BKN040
     FM020800 23005KT P6SM VCSH OVC035=



000
FTUS41 KRNK 011132
TAFDAN
TAF
KDAN 011132Z 0112/0212 23005KT P6SM BKN100
     FM011500 26008G16KT P6SM SCT060
     FM020300 23004KT P6SM SCT250
      AMD NOT SKED=



000
FTUS41 KRNK 011132
TAFROA
TAF
KROA 011132Z 0112/0212 24006KT P6SM -RA SCT045 BKN070
     FM011430 26008G16KT P6SM BKN050
     FM011800 27010G18KT P6SM SCT060
     FM012300 28006KT P6SM SCT250
     FM020800 24005KT P6SM BKN080 BKN250=



000
FTUS41 KRNK 011132
TAFLWB
TAF
KLWB 011132Z 0112/0212 25004KT P6SM -RA SCT025 BKN050
      TEMPO 0112/0114 BKN025
     FM011400 26008KT P6SM BKN035
     FM011800 27008KT P6SM SCT045
     FM020000 24004KT P6SM BKN045
     FM020700 23003KT P6SM VCSH OVC040=



000
FTUS41 KRNK 011132
TAFLYH
TAF
KLYH 011132Z 0112/0212 22005KT P6SM BKN070
     FM011500 23007KT P6SM SCT060
     FM011800 26008KT P6SM SCT070
     FM012300 24004KT P6SM SCT250
     FM021000 00000KT P6SM BKN080 BKN250=



000
FTUS41 KRNK 010903 AAA
TAFBLF
TAF AMD
KBLF 010903Z 0109/0206 24006KT P6SM -RA SCT015 BKN035
      TEMPO 0111/0113 5SM -SHRA BR BKN015
     FM011400 27011G20KT P6SM BKN045
     FM011900 27008KT P6SM SCT050
     FM020300 22004KT P6SM BKN050=



000
FTUS41 KRNK 010903 AAA
TAFBLF
TAF AMD
KBLF 010903Z 0109/0206 24006KT P6SM -RA SCT015 BKN035
      TEMPO 0111/0113 5SM -SHRA BR BKN015
     FM011400 27011G20KT P6SM BKN045
     FM011900 27008KT P6SM SCT050
     FM020300 22004KT P6SM BKN050=



000
FTUS41 KRNK 010826 AAA
TAFLWB
TAF AMD
KLWB 010826Z 0108/0206 00000KT P6SM BKN030 OVC060
      TEMPO 0110/0112 5SM -SHRA BR BKN035
     FM011330 26005KT P6SM BKN030
     FM011600 27007KT P6SM SCT045
     FM020100 VRB03KT P6SM BKN045=



000
FTUS41 KRNK 010826 AAA
TAFLWB
TAF AMD
KLWB 010826Z 0108/0206 00000KT P6SM BKN030 OVC060
      TEMPO 0110/0112 5SM -SHRA BR BKN035
     FM011330 26005KT P6SM BKN030
     FM011600 27007KT P6SM SCT045
     FM020100 VRB03KT P6SM BKN045=



000
FTUS41 KRNK 010823 AAA
TAFLYH
TAF AMD
KLYH 010823Z 0108/0206 17005KT P6SM VCSH SCT005 BKN050
     FM011000 22005KT P6SM SCT050 BKN100
     FM011330 24006KT P6SM SCT040 BKN140
     FM020300 VRB04KT P6SM SCT250=



000
FTUS41 KRNK 010823 AAA
TAFLYH
TAF AMD
KLYH 010823Z 0108/0206 17005KT P6SM VCSH SCT005 BKN050
     FM011000 22005KT P6SM SCT050 BKN100
     FM011330 24006KT P6SM SCT040 BKN140
     FM020300 VRB04KT P6SM SCT250=



000
FTUS41 KRNK 010523
TAFLWB
TAF
KLWB 010523Z 0106/0206 00000KT P6SM SCT070 BKN110
     FM010800 00000KT 5SM BR SCT045 OVC080
      TEMPO 0110/0112 1 1/2SM BR BKN045
     FM011330 26005KT P6SM BKN030
     FM011600 27007KT P6SM SCT045
     FM020100 VRB03KT P6SM BKN045=



000
FTUS41 KRNK 010523
TAFBLF
TAF
KBLF 010523Z 0106/0206 24006KT P6SM -RA SCT030 BKN100
     FM010900 26006KT 5SM BR BKN015
     FM011400 27011G20KT P6SM BKN045
     FM011900 27008KT P6SM SCT050
     FM020300 22004KT P6SM BKN050=



000
FTUS41 KRNK 010523
TAFDAN
TAF
KDAN 010523Z 0106/0206 21003KT P6SM FEW050 BKN250
     FM010900 22003KT 5SM BR SCT250
     FM011330 25008KT P6SM SCT050
     FM020300 22004KT P6SM SKC
      AMD NOT SKED=



000
FTUS41 KRNK 010523
TAFROA
TAF
KROA 010523Z 0106/0206 24003KT P6SM SCT045 BKN080
     FM011400 26007KT P6SM SCT040 BKN100
     FM020200 25005KT P6SM SCT100=



000
FTUS41 KRNK 010523
TAFLYH
TAF
KLYH 010523Z 0106/0206 22005KT P6SM SCT050 BKN250
     FM010800 22003KT 4SM BR SCT005 BKN100
     FM011330 24006KT P6SM SCT040 BKN140
     FM020300 VRB04KT P6SM SCT250=



000
FTUS41 KRNK 010523
TAFROA
TAF
KROA 010523Z 0106/0206 24003KT P6SM SCT045 BKN080
     FM011400 26007KT P6SM SCT040 BKN100
     FM020200 25005KT P6SM SCT100=



000
FTUS41 KRNK 010523
TAFDAN
TAF
KDAN 010523Z 0106/0206 21003KT P6SM FEW050 BKN250
     FM010900 22003KT 5SM BR SCT250
     FM011330 25008KT P6SM SCT050
     FM020300 22004KT P6SM SKC
      AMD NOT SKED=



000
FTUS41 KRNK 010523
TAFBLF
TAF
KBLF 010523Z 0106/0206 24006KT P6SM -RA SCT030 BKN100
     FM010900 26006KT 5SM BR BKN015
     FM011400 27011G20KT P6SM BKN045
     FM011900 27008KT P6SM SCT050
     FM020300 22004KT P6SM BKN050=



000
FTUS41 KRNK 010523
TAFLYH
TAF
KLYH 010523Z 0106/0206 22005KT P6SM SCT050 BKN250
     FM010800 22003KT 4SM BR SCT005 BKN100
     FM011330 24006KT P6SM SCT040 BKN140
     FM020300 VRB04KT P6SM SCT250=



000
FTUS41 KRNK 010523
TAFLWB
TAF
KLWB 010523Z 0106/0206 00000KT P6SM SCT070 BKN110
     FM010800 00000KT 5SM BR SCT045 OVC080
      TEMPO 0110/0112 1 1/2SM BR BKN045
     FM011330 26005KT P6SM BKN030
     FM011600 27007KT P6SM SCT045
     FM020100 VRB03KT P6SM BKN045=



000
FTUS41 KRNK 010437 AAB
TAFLWB
TAF AMD
KLWB 010437Z 0105/0124 00000KT P6SM SCT070 BKN110
     FM010600 00000KT 5SM BR SCT045 OVC080
      TEMPO 0110/0112 1 1/2SM BR BKN045
     FM011330 26005KT P6SM BKN030
     FM011600 27007KT P6SM SCT045=



000
FTUS41 KRNK 010437 AAB
TAFLWB
TAF AMD
KLWB 010437Z 0105/0124 00000KT P6SM SCT070 BKN110
     FM010600 00000KT 5SM BR SCT045 OVC080
      TEMPO 0110/0112 1 1/2SM BR BKN045
     FM011330 26005KT P6SM BKN030
     FM011600 27007KT P6SM SCT045=



000
FTUS41 KRNK 010132 AAA
TAFLWB
TAF AMD
KLWB 010132Z 0102/0124 00000KT P6SM SCT070 BKN110
     FM010400 00000KT 5SM BR SCT045 OVC080
      TEMPO 0110/0112 1 1/2SM BR BKN045
     FM011330 26005KT P6SM BKN030
     FM011600 27007KT P6SM SCT045=



000
FTUS41 KRNK 010132 AAA
TAFLWB
TAF AMD
KLWB 010132Z 0102/0124 00000KT P6SM SCT070 BKN110
     FM010400 00000KT 5SM BR SCT045 OVC080
      TEMPO 0110/0112 1 1/2SM BR BKN045
     FM011330 26005KT P6SM BKN030
     FM011600 27007KT P6SM SCT045=



000
FTUS41 KRNK 312336
TAFDAN
TAF
KDAN 312336Z 0100/0124 21003KT P6SM FEW050 BKN250
     FM010900 22003KT 5SM BR SCT250
     FM011330 25008KT P6SM SCT050
      AMD NOT SKED=



000
FTUS41 KRNK 312336
TAFLYH
TAF
KLYH 312336Z 0100/0124 22005KT P6SM SCT050 BKN250
     FM010800 22003KT 4SM BR SCT005 BKN100
     FM011330 24006KT P6SM SCT040 BKN140=



000
FTUS41 KRNK 312336
TAFROA
TAF
KROA 312336Z 0100/0124 23005KT P6SM SCT060 BKN130
     FM010400 24003KT P6SM SCT045 BKN080
     FM011400 26007KT P6SM SCT040 BKN100=



000
FTUS41 KRNK 312336
TAFBLF
TAF
KBLF 312336Z 0100/0124 24004KT P6SM VCSH OVC080
     FM010500 24006KT P6SM SCT030 BKN100
     FM010900 26006KT 5SM BR BKN015
     FM011400 27011G20KT P6SM BKN045
     FM011900 27008KT P6SM SCT050=



000
FTUS41 KRNK 312336
TAFLWB
TAF
KLWB 312336Z 0100/0124 21004KT P6SM VCSH SCT050 OVC100
     FM010130 25003KT 5SM -SHRA BKN045
     FM010400 00000KT 5SM BR SCT045 OVC080
      TEMPO 0110/0112 1 1/2SM BR BKN045
     FM011330 26005KT P6SM BKN030
     FM011600 27007KT P6SM SCT045=



000
FTUS41 KRNK 312336
TAFDAN
TAF
KDAN 312336Z 0100/0124 21003KT P6SM FEW050 BKN250
     FM010900 22003KT 5SM BR SCT250
     FM011330 25008KT P6SM SCT050
      AMD NOT SKED=



000
FTUS41 KRNK 312336
TAFLYH
TAF
KLYH 312336Z 0100/0124 22005KT P6SM SCT050 BKN250
     FM010800 22003KT 4SM BR SCT005 BKN100
     FM011330 24006KT P6SM SCT040 BKN140=



000
FTUS41 KRNK 312336
TAFROA
TAF
KROA 312336Z 0100/0124 23005KT P6SM SCT060 BKN130
     FM010400 24003KT P6SM SCT045 BKN080
     FM011400 26007KT P6SM SCT040 BKN100=



000
FTUS41 KRNK 312336
TAFBLF
TAF
KBLF 312336Z 0100/0124 24004KT P6SM VCSH OVC080
     FM010500 24006KT P6SM SCT030 BKN100
     FM010900 26006KT 5SM BR BKN015
     FM011400 27011G20KT P6SM BKN045
     FM011900 27008KT P6SM SCT050=



000
FTUS41 KRNK 312336
TAFLWB
TAF
KLWB 312336Z 0100/0124 21004KT P6SM VCSH SCT050 OVC100
     FM010130 25003KT 5SM -SHRA BKN045
     FM010400 00000KT 5SM BR SCT045 OVC080
      TEMPO 0110/0112 1 1/2SM BR BKN045
     FM011330 26005KT P6SM BKN030
     FM011600 27007KT P6SM SCT045=



000
FTUS41 KRNK 311917 AAA
TAFROA
TAF AMD
KROA 311917Z 3119/0118 17007KT P6SM VCSH BKN050 OVC080
     FM312200 20004KT P6SM VCTS BKN050CB
     FM010400 24003KT P6SM -SHRA SCT045 BKN080
     FM011400 26007KT P6SM SCT035 BKN100=



000
FTUS41 KRNK 311917 AAA
TAFROA
TAF AMD
KROA 311917Z 3119/0118 17007KT P6SM VCSH BKN050 OVC080
     FM312200 20004KT P6SM VCTS BKN050CB
     FM010400 24003KT P6SM -SHRA SCT045 BKN080
     FM011400 26007KT P6SM SCT035 BKN100=



000
FTUS41 KRNK 311727
TAFLWB
TAF
KLWB 311727Z 3118/0118 25007KT P6SM VCSH BKN035 OVC045
     FM312000 25007KT P6SM -SHRA VCTS OVC040CB
     FM010200 25003KT 5SM -SHRA OVC035
     FM010800 00000KT 2SM BR BKN080
     FM011000 00000KT 1/2SM FG BKN001
     FM011330 26004KT P6SM SCT010 BKN025
     FM011500 27007KT P6SM SCT035 SCT080=



000
FTUS41 KRNK 311727
TAFDAN
TAF
KDAN 311727Z 3118/0118 24009KT P6SM BKN045
     FM010000 20003KT P6SM SCT050 BKN150
     FM010900 22003KT 4SM BR SCT100
     FM011330 25008KT P6SM SCT050
      AMD NOT SKED=



000
FTUS41 KRNK 311727
TAFBLF
TAF
KBLF 311727Z 3118/0118 28010KT P6SM VCSH SCT025 OVC040
     FM312000 23008KT 6SM -SHRA VCTS OVC045CB
     FM010100 21007KT 5SM -SHRA OVC035
     FM010500 25008KT P6SM SCT025 BKN100
     FM010900 26006KT 5SM BR BKN015 BKN080
     FM011400 27011KT P6SM SCT035 BKN050=



000
FTUS41 KRNK 311727
TAFROA
TAF
KROA 311727Z 3118/0118 VRB03KT P6SM SCT040 SCT080
     FM312200 20004KT P6SM VCTS BKN050CB
     FM010400 24003KT P6SM -SHRA SCT045 BKN080
     FM011400 26007KT P6SM SCT035 BKN100=



000
FTUS41 KRNK 311727
TAFDAN
TAF
KDAN 311727Z 3118/0118 24009KT P6SM BKN045
     FM010000 20003KT P6SM SCT050 BKN150
     FM010900 22003KT 4SM BR SCT100
     FM011330 25008KT P6SM SCT050
      AMD NOT SKED=



000
FTUS41 KRNK 311727
TAFBLF
TAF
KBLF 311727Z 3118/0118 28010KT P6SM VCSH SCT025 OVC040
     FM312000 23008KT 6SM -SHRA VCTS OVC045CB
     FM010100 21007KT 5SM -SHRA OVC035
     FM010500 25008KT P6SM SCT025 BKN100
     FM010900 26006KT 5SM BR BKN015 BKN080
     FM011400 27011KT P6SM SCT035 BKN050=



000
FTUS41 KRNK 311727
TAFLYH
TAF
KLYH 311727Z 3118/0118 22009KT P6SM SCT035
     FM010000 20003KT P6SM VCSH SCT045 BKN120
     FM010800 22003KT 3SM BR SCT005 BKN100
     FM011330 24006KT P6SM SCT040 SCT080=



000
FTUS41 KRNK 311727
TAFLWB
TAF
KLWB 311727Z 3118/0118 25007KT P6SM VCSH BKN035 OVC045
     FM312000 25007KT P6SM -SHRA VCTS OVC040CB
     FM010200 25003KT 5SM -SHRA OVC035
     FM010800 00000KT 2SM BR BKN080
     FM011000 00000KT 1/2SM FG BKN001
     FM011330 26004KT P6SM SCT010 BKN025
     FM011500 27007KT P6SM SCT035 SCT080=



000
FTUS41 KRNK 311727
TAFLYH
TAF
KLYH 311727Z 3118/0118 22009KT P6SM SCT035
     FM010000 20003KT P6SM VCSH SCT045 BKN120
     FM010800 22003KT 3SM BR SCT005 BKN100
     FM011330 24006KT P6SM SCT040 SCT080=



000
FTUS41 KRNK 311727
TAFROA
TAF
KROA 311727Z 3118/0118 VRB03KT P6SM SCT040 SCT080
     FM312200 20004KT P6SM VCTS BKN050CB
     FM010400 24003KT P6SM -SHRA SCT045 BKN080
     FM011400 26007KT P6SM SCT035 BKN100=



000
FTUS41 KRNK 311525 AAB
TAFLYH
TAF AMD
KLYH 311525Z 3115/0112 20008KT P6SM BKN020
      TEMPO 3116/3119 SCT025 BKN040
     FM010000 20003KT P6SM OVC100
     FM010800 22003KT 2SM BR SCT250=



000
FTUS41 KRNK 311322 AAA
TAFLYH
TAF AMD
KLYH 311322Z 3113/0112 20008KT P6SM SCT060
     FM311500 21008KT P6SM SCT050 BKN120
      TEMPO 3119/3122 BKN040
     FM010000 20003KT P6SM OVC100
     FM010800 22003KT 2SM BR SCT250=



000
FTUS41 KRNK 311322 AAA
TAFLYH
TAF AMD
KLYH 311322Z 3113/0112 20008KT P6SM SCT060
     FM311500 21008KT P6SM SCT050 BKN120
      TEMPO 3119/3122 BKN040
     FM010000 20003KT P6SM OVC100
     FM010800 22003KT 2SM BR SCT250=



000
FTUS41 KRNK 311151 AAA
TAFDAN
TAF AMD
KDAN 311151Z 3112/0112 22005KT P6SM BKN005 BKN040
      TEMPO 3112/3113 BKN012
     FM311400 22009KT P6SM SCT035 BKN120
     FM010000 20003KT P6SM SCT050 BKN150
     FM010900 22003KT 3SM BR SCT250
      AMD NOT SKED=



000
FTUS41 KRNK 311151 AAA
TAFDAN
TAF AMD
KDAN 311151Z 3112/0112 22005KT P6SM BKN005 BKN040
      TEMPO 3112/3113 BKN012
     FM311400 22009KT P6SM SCT035 BKN120
     FM010000 20003KT P6SM SCT050 BKN150
     FM010900 22003KT 3SM BR SCT250
      AMD NOT SKED=



000
FTUS41 KRNK 311133
TAFLWB
TAF
KLWB 311133Z 3112/0112 00000KT P6SM -SHRA SCT020 OVC080
     FM311600 25006KT P6SM SCT030 BKN100
     FM312000 25007KT P6SM -SHRA VCTS BKN045CB
     FM010200 25003KT 5SM -SHRA OVC035
     FM010800 00000KT 2SM BR BKN080=



000
FTUS41 KRNK 311133
TAFROA
TAF
KROA 311133Z 3112/0112 00000KT P6SM SCT035 BKN090
     FM311500 22006KT P6SM SCT040 BKN100
     FM312100 20004KT 6SM -SHRA VCTS OVC050CB
     FM010000 24003KT P6SM SCT045 OVC080=



000
FTUS41 KRNK 311133
TAFLYH
TAF
KLYH 311133Z 3112/0112 19003KT 4SM BR SCT012 BKN120
     FM311500 21008KT P6SM SCT050 BKN120
      TEMPO 3119/3122 BKN050
     FM010000 20003KT P6SM OVC100
     FM010800 22003KT 2SM BR SCT250=



000
FTUS41 KRNK 311133
TAFDAN
TAF
KDAN 311133Z 3112/0112 22005KT P6SM SCT012 BKN040
      TEMPO 3112/3113 BKN012
     FM311400 22009KT P6SM SCT035 BKN120
     FM010000 20003KT P6SM SCT050 BKN150
     FM010900 22003KT 3SM BR SCT250
      AMD NOT SKED=



000
FTUS41 KRNK 311133
TAFBLF
TAF
KBLF 311133Z 3112/0112 22009KT P6SM VCSH SCT020 OVC080
     FM311400 24010KT P6SM SCT025 BKN100
     FM312000 23008KT 6SM -SHRA VCTS BKN045CB
     FM010000 21007KT 5SM -SHRA OVC035
     FM010500 25008KT P6SM BKN100=



000
FTUS41 KRNK 311133
TAFLWB
TAF
KLWB 311133Z 3112/0112 00000KT P6SM -SHRA SCT020 OVC080
     FM311600 25006KT P6SM SCT030 BKN100
     FM312000 25007KT P6SM -SHRA VCTS BKN045CB
     FM010200 25003KT 5SM -SHRA OVC035
     FM010800 00000KT 2SM BR BKN080=



000
FTUS41 KRNK 311133
TAFROA
TAF
KROA 311133Z 3112/0112 00000KT P6SM SCT035 BKN090
     FM311500 22006KT P6SM SCT040 BKN100
     FM312100 20004KT 6SM -SHRA VCTS OVC050CB
     FM010000 24003KT P6SM SCT045 OVC080=



000
FTUS41 KRNK 311133
TAFDAN
TAF
KDAN 311133Z 3112/0112 22005KT P6SM SCT012 BKN040
      TEMPO 3112/3113 BKN012
     FM311400 22009KT P6SM SCT035 BKN120
     FM010000 20003KT P6SM SCT050 BKN150
     FM010900 22003KT 3SM BR SCT250
      AMD NOT SKED=



000
FTUS41 KRNK 311133
TAFBLF
TAF
KBLF 311133Z 3112/0112 22009KT P6SM VCSH SCT020 OVC080
     FM311400 24010KT P6SM SCT025 BKN100
     FM312000 23008KT 6SM -SHRA VCTS BKN045CB
     FM010000 21007KT 5SM -SHRA OVC035
     FM010500 25008KT P6SM BKN100=



000
FTUS41 KRNK 311133
TAFLYH
TAF
KLYH 311133Z 3112/0112 19003KT 4SM BR SCT012 BKN120
     FM311500 21008KT P6SM SCT050 BKN120
      TEMPO 3119/3122 BKN050
     FM010000 20003KT P6SM OVC100
     FM010800 22003KT 2SM BR SCT250=



000
FTUS41 KRNK 310934 AAB
TAFLYH
TAF AMD
KLYH 310934Z 3110/0106 19004KT 5SM BR SCT050 BKN150
      TEMPO 3110/3111 2SM BR
     FM311200 19003KT 4SM BR SCT012 BKN120
     FM311500 21010KT P6SM SCT050 BKN120
     FM010000 20004KT P6SM OVC100=



000
FTUS41 KRNK 310934 AAB
TAFLYH
TAF AMD
KLYH 310934Z 3110/0106 19004KT 5SM BR SCT050 BKN150
      TEMPO 3110/3111 2SM BR
     FM311200 19003KT 4SM BR SCT012 BKN120
     FM311500 21010KT P6SM SCT050 BKN120
     FM010000 20004KT P6SM OVC100=



000
FTUS41 KRNK 310902 AAC
TAFLWB
TAF AMD
KLWB 310902Z 3109/0106 25009KT 6SM -SHRA SCT020 OVC050
      TEMPO 3109/3111 3SM SHRA OVC035
     FM311700 24003KT P6SM VCSH SCT009 BKN050
     FM312000 24007KT P6SM -SHRA VCTS BKN045CB
     FM010000 25003KT 5SM -SHRA OVC035=



000
FTUS41 KRNK 310902 AAC
TAFLWB
TAF AMD
KLWB 310902Z 3109/0106 25009KT 6SM -SHRA SCT020 OVC050
      TEMPO 3109/3111 3SM SHRA OVC035
     FM311700 24003KT P6SM VCSH SCT009 BKN050
     FM312000 24007KT P6SM -SHRA VCTS BKN045CB
     FM010000 25003KT 5SM -SHRA OVC035=



000
FTUS41 KRNK 310901 AAB
TAFBLF
TAF AMD
KBLF 310901Z 3109/0106 24009KT P6SM -SHRA SCT020 OVC050
      TEMPO 3109/3110 3SM SHRA OVC035
     FM311700 24010KT P6SM VCSH SCT015 BKN080
     FM312000 22008KT 6SM -SHRA VCTS BKN045CB
     FM010000 21007KT 5SM -SHRA OVC035=



000
FTUS41 KRNK 310901 AAB
TAFBLF
TAF AMD
KBLF 310901Z 3109/0106 24009KT P6SM -SHRA SCT020 OVC050
      TEMPO 3109/3110 3SM SHRA OVC035
     FM311700 24010KT P6SM VCSH SCT015 BKN080
     FM312000 22008KT 6SM -SHRA VCTS BKN045CB
     FM010000 21007KT 5SM -SHRA OVC035=



000
FTUS41 KRNK 310815 AAB
TAFLWB
TAF AMD
KLWB 310815Z 3108/0106 00000KT 5SM BR SCT035 BKN100
     FM310900 25003KT 6SM -SHRA SCT020 OVC050
     FM311700 24003KT P6SM VCSH SCT009 BKN050
     FM312000 24007KT P6SM -SHRA VCTS BKN045CB
     FM010000 25003KT 5SM -SHRA OVC035=



000
FTUS41 KRNK 310815 AAB
TAFLWB
TAF AMD
KLWB 310815Z 3108/0106 00000KT 5SM BR SCT035 BKN100
     FM310900 25003KT 6SM -SHRA SCT020 OVC050
     FM311700 24003KT P6SM VCSH SCT009 BKN050
     FM312000 24007KT P6SM -SHRA VCTS BKN045CB
     FM010000 25003KT 5SM -SHRA OVC035=



000
FTUS41 KRNK 310814 AAA
TAFBLF
TAF AMD
KBLF 310814Z 3108/0106 18006KT P6SM -SHRA SCT020 OVC050
      TEMPO 3108/3110 3SM SHRA OVC035
     FM311700 24010KT P6SM VCSH SCT015 BKN080
     FM312000 22008KT 6SM -SHRA VCTS BKN045CB
     FM010000 21007KT 5SM -SHRA OVC035=



000
FTUS41 KRNK 310814 AAA
TAFBLF
TAF AMD
KBLF 310814Z 3108/0106 18006KT P6SM -SHRA SCT020 OVC050
      TEMPO 3108/3110 3SM SHRA OVC035
     FM311700 24010KT P6SM VCSH SCT015 BKN080
     FM312000 22008KT 6SM -SHRA VCTS BKN045CB
     FM010000 21007KT 5SM -SHRA OVC035=



000
FTUS41 KRNK 310812 AAA
TAFLYH
TAF AMD
KLYH 310812Z 3108/0106 19004KT 4SM BR SCT050 BKN150
      TEMPO 3108/3109 2SM BR
     FM311200 19003KT 4SM BR OVC012
     FM311500 21010KT P6SM SCT050 BKN120
     FM010000 20004KT P6SM OVC100=



000
FTUS41 KRNK 310812 AAA
TAFLYH
TAF AMD
KLYH 310812Z 3108/0106 19004KT 4SM BR SCT050 BKN150
      TEMPO 3108/3109 2SM BR
     FM311200 19003KT 4SM BR OVC012
     FM311500 21010KT P6SM SCT050 BKN120
     FM010000 20004KT P6SM OVC100=



000
FTUS41 KRNK 310710 AAA
TAFLWB
TAF AMD
KLWB 310710Z 3107/0106 00000KT 5SM BR SCT035 BKN100
     FM310800 25003KT 4SM BR SCT040 BKN080
     FM311700 24003KT P6SM VCSH SCT009 BKN050
     FM312000 24007KT P6SM -SHRA VCTS BKN045CB
     FM010000 25003KT 5SM -SHRA OVC035=



000
FTUS41 KRNK 310710 AAA
TAFLWB
TAF AMD
KLWB 310710Z 3107/0106 00000KT 5SM BR SCT035 BKN100
     FM310800 25003KT 4SM BR SCT040 BKN080
     FM311700 24003KT P6SM VCSH SCT009 BKN050
     FM312000 24007KT P6SM -SHRA VCTS BKN045CB
     FM010000 25003KT 5SM -SHRA OVC035=



000
FTUS41 KRNK 310520
TAFLYH
TAF
KLYH 310520Z 3106/0106 18006KT P6SM SCT040
     FM310800 19004KT 4SM BR BKN050
     FM311200 19003KT 4SM BR OVC012
     FM311500 21010KT P6SM SCT050 BKN120
     FM010000 20004KT P6SM OVC100=



000
FTUS41 KRNK 310520
TAFROA
TAF
KROA 310520Z 3106/0106 00000KT P6SM SCT035
     FM311500 22007KT P6SM SCT020 BKN100
     FM010000 18004KT P6SM BKN045 OVC080=



000
FTUS41 KRNK 310520
TAFROA
TAF
KROA 310520Z 3106/0106 00000KT P6SM SCT035
     FM311500 22007KT P6SM SCT020 BKN100
     FM010000 18004KT P6SM BKN045 OVC080=



000
FTUS41 KRNK 310520
TAFBLF
TAF
KBLF 310520Z 3106/0106 18008KT P6SM SCT030 BKN100
     FM311700 24010KT P6SM VCSH SCT015 BKN080
     FM312000 22008KT 6SM -SHRA VCTS BKN045CB
     FM010000 21007KT 5SM -SHRA OVC035=



000
FTUS41 KRNK 310520
TAFLWB
TAF
KLWB 310520Z 3106/0106 00000KT P6SM SCT035 BKN100
     FM310800 25003KT 4SM BR SCT040 BKN080
     FM311700 24003KT P6SM VCSH SCT009 BKN050
     FM312000 24007KT P6SM -SHRA VCTS BKN045CB
     FM010000 25003KT 5SM -SHRA OVC035=



000
FTUS41 KRNK 310520
TAFDAN
TAF
KDAN 310520Z 3106/0106 20004KT P6SM SCT040
     FM310900 22004KT 6SM BR SCT009 BKN080
     FM311200 22005KT 4SM BR BKN005 BKN040
     FM311400 22008KT P6SM SCT025 BKN120
     FM010000 20004KT P6SM SCT050 BKN100
      AMD NOT SKED=



000
FTUS41 KRNK 310520
TAFLYH
TAF
KLYH 310520Z 3106/0106 18006KT P6SM SCT040
     FM310800 19004KT 4SM BR BKN050
     FM311200 19003KT 4SM BR OVC012
     FM311500 21010KT P6SM SCT050 BKN120
     FM010000 20004KT P6SM OVC100=



000
FTUS41 KRNK 310520
TAFDAN
TAF
KDAN 310520Z 3106/0106 20004KT P6SM SCT040
     FM310900 22004KT 6SM BR SCT009 BKN080
     FM311200 22005KT 4SM BR BKN005 BKN040
     FM311400 22008KT P6SM SCT025 BKN120
     FM010000 20004KT P6SM SCT050 BKN100
      AMD NOT SKED=



000
FTUS41 KRNK 310520
TAFLWB
TAF
KLWB 310520Z 3106/0106 00000KT P6SM SCT035 BKN100
     FM310800 25003KT 4SM BR SCT040 BKN080
     FM311700 24003KT P6SM VCSH SCT009 BKN050
     FM312000 24007KT P6SM -SHRA VCTS BKN045CB
     FM010000 25003KT 5SM -SHRA OVC035=



000
FTUS41 KRNK 310520
TAFBLF
TAF
KBLF 310520Z 3106/0106 18008KT P6SM SCT030 BKN100
     FM311700 24010KT P6SM VCSH SCT015 BKN080
     FM312000 22008KT 6SM -SHRA VCTS BKN045CB
     FM010000 21007KT 5SM -SHRA OVC035=



000
FTUS41 KRNK 302321
TAFLWB
TAF
KLWB 302321Z 3100/3124 20004KT P6SM SCT050
     FM310300 19003KT P6SM SCT035 BKN130
     FM310900 00000KT 2SM BR SCT040 BKN110
     FM311300 24003KT P6SM VCSH SCT009 BKN050
     FM312000 24007KT P6SM -SHRA VCTS BKN045CB=



000
FTUS41 KRNK 302321
TAFROA
TAF
KROA 302321Z 3100/3124 15008KT P6SM SCT040
     FM310200 16005KT P6SM SCT035
     FM311500 22004KT P6SM SCT020 BKN080
     FM311800 19008KT P6SM BKN045=



000
FTUS41 KRNK 302321
TAFLYH
TAF
KLYH 302321Z 3100/3124 18006KT P6SM FEW050
     FM310600 18004KT P6SM SCT040
      TEMPO 3109/3112 4SM BR SCT007 SCT060
     FM311500 20008KT P6SM SCT050 SCT100=



000
FTUS41 KRNK 302321
TAFBLF
TAF
KBLF 302321Z 3100/3124 17006KT P6SM SCT045
     FM310300 20007KT P6SM SCT030 BKN120
     FM311200 24007KT P6SM VCSH SCT015 BKN080
     FM311900 25008KT 6SM -SHRA VCTS BKN040CB=



000
FTUS41 KRNK 302321
TAFLYH
TAF
KLYH 302321Z 3100/3124 18006KT P6SM FEW050
     FM310600 18004KT P6SM SCT040
      TEMPO 3109/3112 4SM BR SCT007 SCT060
     FM311500 20008KT P6SM SCT050 SCT100=



000
FTUS41 KRNK 302321
TAFDAN
TAF
KDAN 302321Z 3100/3124 VRB03KT P6SM SCT040
     FM311000 22004KT 4SM BR SCT009 BKN080
     FM311200 22005KT 6SM BR BKN007 BKN040
     FM311400 23006KT P6SM SCT025
     FM311800 24008KT P6SM SCT050
      AMD NOT SKED=



000
FTUS41 KRNK 302321
TAFROA
TAF
KROA 302321Z 3100/3124 15008KT P6SM SCT040
     FM310200 16005KT P6SM SCT035
     FM311500 22004KT P6SM SCT020 BKN080
     FM311800 19008KT P6SM BKN045=



000
FTUS41 KRNK 302321
TAFLWB
TAF
KLWB 302321Z 3100/3124 20004KT P6SM SCT050
     FM310300 19003KT P6SM SCT035 BKN130
     FM310900 00000KT 2SM BR SCT040 BKN110
     FM311300 24003KT P6SM VCSH SCT009 BKN050
     FM312000 24007KT P6SM -SHRA VCTS BKN045CB=



000
FTUS41 KRNK 302321
TAFBLF
TAF
KBLF 302321Z 3100/3124 17006KT P6SM SCT045
     FM310300 20007KT P6SM SCT030 BKN120
     FM311200 24007KT P6SM VCSH SCT015 BKN080
     FM311900 25008KT 6SM -SHRA VCTS BKN040CB=



000
FTUS41 KRNK 302321
TAFDAN
TAF
KDAN 302321Z 3100/3124 VRB03KT P6SM SCT040
     FM311000 22004KT 4SM BR SCT009 BKN080
     FM311200 22005KT 6SM BR BKN007 BKN040
     FM311400 23006KT P6SM SCT025
     FM311800 24008KT P6SM SCT050
      AMD NOT SKED=



000
FTUS41 KRNK 302125 AAA
TAFROA
TAF AMD
KROA 302125Z 3021/3118 17010G20KT P6SM SCT040
     FM310000 18003KT P6SM SKC
     FM311500 22004KT P6SM SCT020=



000
FTUS41 KRNK 302125 AAA
TAFROA
TAF AMD
KROA 302125Z 3021/3118 17010G20KT P6SM SCT040
     FM310000 18003KT P6SM SKC
     FM311500 22004KT P6SM SCT020=



000
FTUS41 KRNK 301739
TAFROA
TAF
KROA 301739Z 3018/3118 19005KT P6SM SCT030
     FM310200 18003KT P6SM SKC
     FM311500 22004KT P6SM SCT020=



000
FTUS41 KRNK 301739
TAFDAN
TAF
KDAN 301739Z 3018/3118 18004KT P6SM SCT030
     FM302000 18004KT P6SM BKN045
     FM310000 18003KT P6SM SCT045
     FM311000 22004KT 6SM BR SCT009 BKN080
     FM311200 22005KT P6SM BKN009
     FM311430 23006KT P6SM SCT025
      AMD NOT SKED=



000
FTUS41 KRNK 301739
TAFLYH
TAF
KLYH 301739Z 3018/3118 19004KT P6SM SCT025 BKN070
     FM310100 18004KT P6SM SCT040=



000
FTUS41 KRNK 301739
TAFLYH
TAF
KLYH 301739Z 3018/3118 19004KT P6SM SCT025 BKN070
     FM310100 18004KT P6SM SCT040=



000
FTUS41 KRNK 301739
TAFDAN
TAF
KDAN 301739Z 3018/3118 18004KT P6SM SCT030
     FM302000 18004KT P6SM BKN045
     FM310000 18003KT P6SM SCT045
     FM311000 22004KT 6SM BR SCT009 BKN080
     FM311200 22005KT P6SM BKN009
     FM311430 23006KT P6SM SCT025
      AMD NOT SKED=



000
FTUS41 KRNK 301739
TAFROA
TAF
KROA 301739Z 3018/3118 19005KT P6SM SCT030
     FM310200 18003KT P6SM SKC
     FM311500 22004KT P6SM SCT020=



000
FTUS41 KRNK 301739
TAFLWB
TAF
KLWB 301739Z 3018/3118 20005KT P6SM SCT035
     FM302200 19004KT P6SM BKN045
     FM310300 19003KT P6SM SCT035 BKN130
     FM310900 00000KT 4SM BR SCT040 BKN110
     FM311300 24003KT P6SM SCT009 BKN050=



000
FTUS41 KRNK 301739
TAFBLF
TAF
KBLF 301739Z 3018/3118 18007KT P6SM BKN045
     FM310300 20007KT P6SM SCT030 BKN120
     FM311400 24007KT P6SM VCSH SCT015 BKN080=



000
FTUS41 KRNK 301739
TAFBLF
TAF
KBLF 301739Z 3018/3118 18007KT P6SM BKN045
     FM310300 20007KT P6SM SCT030 BKN120
     FM311400 24007KT P6SM VCSH SCT015 BKN080=



000
FTUS41 KRNK 301739
TAFLWB
TAF
KLWB 301739Z 3018/3118 20005KT P6SM SCT035
     FM302200 19004KT P6SM BKN045
     FM310300 19003KT P6SM SCT035 BKN130
     FM310900 00000KT 4SM BR SCT040 BKN110
     FM311300 24003KT P6SM SCT009 BKN050=



000
FTUS41 KRNK 301533 AAA
TAFLYH
TAF AMD
KLYH 301533Z 3016/3112 00000KT P6SM OVC009
     FM301600 18003KT P6SM BKN015
     FM301900 19006KT P6SM BKN035
     FM310100 18004KT P6SM SCT250=



000
FTUS41 KRNK 301533 AAA
TAFLYH
TAF AMD
KLYH 301533Z 3016/3112 00000KT P6SM OVC009
     FM301600 18003KT P6SM BKN015
     FM301900 19006KT P6SM BKN035
     FM310100 18004KT P6SM SCT250=



000
FTUS41 KRNK 301338 AAA
TAFBLF
TAF AMD
KBLF 301338Z 3014/3112 24006KT P6SM SCT080
     FM301800 19006KT P6SM BKN040
     FM302200 20005KT P6SM SCT040 BKN200
     FM310300 23008KT P6SM OVC100=



000
FTUS41 KRNK 301338 AAA
TAFBLF
TAF AMD
KBLF 301338Z 3014/3112 24006KT P6SM SCT080
     FM301800 19006KT P6SM BKN040
     FM302200 20005KT P6SM SCT040 BKN200
     FM310300 23008KT P6SM OVC100=



000
FTUS41 KRNK 301125
TAFDAN
TAF
KDAN 301125Z 3012/3112 10004KT 6SM BR OVC009
     FM301300 VRB03KT P6SM OVC018
     FM301600 20006KT P6SM BKN035
     FM302300 18003KT P6SM SCT250
      AMD NOT SKED=



000
FTUS41 KRNK 301125
TAFBLF
TAF
KBLF 301125Z 3012/3112 19007KT P6SM SCT015 BKN070
     FM301400 22007KT P6SM FEW025 BKN040
     FM302200 20005KT P6SM SCT040 BKN200
     FM310300 23008KT P6SM OVC100=



000
FTUS41 KRNK 301125
TAFLWB
TAF
KLWB 301125Z 3012/3112 00000KT 4SM BR SCT007
     FM301330 VRB03KT P6SM SCT020 BKN100
     FM301700 22005KT P6SM SCT025 BKN050
     FM302300 VRB03KT P6SM SCT050 BKN100=



000
FTUS41 KRNK 301125
TAFLYH
TAF
KLYH 301125Z 3012/3112 17005KT P6SM OVC009
     FM301430 17005KT P6SM OVC025
     FM301900 19006KT P6SM BKN035
     FM310100 18004KT P6SM SCT250=



000
FTUS41 KRNK 301125
TAFROA
TAF
KROA 301125Z 3012/3112 14003KT 6SM BR BKN020 OVC035
     FM301600 16005KT P6SM SCT015 OVC035
     FM301900 17007KT P6SM SCT045
     FM310200 16003KT P6SM BKN250=



000
FTUS41 KRNK 301125
TAFDAN
TAF
KDAN 301125Z 3012/3112 10004KT 6SM BR OVC009
     FM301300 VRB03KT P6SM OVC018
     FM301600 20006KT P6SM BKN035
     FM302300 18003KT P6SM SCT250
      AMD NOT SKED=



000
FTUS41 KRNK 301125
TAFROA
TAF
KROA 301125Z 3012/3112 14003KT 6SM BR BKN020 OVC035
     FM301600 16005KT P6SM SCT015 OVC035
     FM301900 17007KT P6SM SCT045
     FM310200 16003KT P6SM BKN250=



000
FTUS41 KRNK 301125
TAFBLF
TAF
KBLF 301125Z 3012/3112 19007KT P6SM SCT015 BKN070
     FM301400 22007KT P6SM FEW025 BKN040
     FM302200 20005KT P6SM SCT040 BKN200
     FM310300 23008KT P6SM OVC100=



000
FTUS41 KRNK 301125
TAFLWB
TAF
KLWB 301125Z 3012/3112 00000KT 4SM BR SCT007
     FM301330 VRB03KT P6SM SCT020 BKN100
     FM301700 22005KT P6SM SCT025 BKN050
     FM302300 VRB03KT P6SM SCT050 BKN100=



000
FTUS41 KRNK 301125
TAFLYH
TAF
KLYH 301125Z 3012/3112 17005KT P6SM OVC009
     FM301430 17005KT P6SM OVC025
     FM301900 19006KT P6SM BKN035
     FM310100 18004KT P6SM SCT250=



000
FTUS41 KRNK 300921 AAC
TAFLYH
TAF AMD
KLYH 300921Z 3009/3106 15004KT P6SM OVC009
     FM301430 17005KT P6SM OVC025
     FM301700 19006KT P6SM OVC035
     FM302000 19005KT P6SM SCT040
     FM310100 18003KT P6SM SCT250=



000
FTUS41 KRNK 300921 AAC
TAFLYH
TAF AMD
KLYH 300921Z 3009/3106 15004KT P6SM OVC009
     FM301430 17005KT P6SM OVC025
     FM301700 19006KT P6SM OVC035
     FM302000 19005KT P6SM SCT040
     FM310100 18003KT P6SM SCT250=



000
FTUS41 KRNK 300921 AAB
TAFDAN
TAF AMD
KDAN 300921Z 3009/3106 VRB03KT 4SM BR OVC009
     FM301300 VRB03KT 6SM BR OVC018
     FM301600 20005KT P6SM BKN035
     FM302300 18003KT P6SM SCT250
      AMD NOT SKED=



000
FTUS41 KRNK 300921 AAA
TAFBLF
TAF AMD
KBLF 300921Z 3009/3106 17009KT P6SM SCT015 BKN070
      TEMPO 3009/3012 BKN015
     FM301400 21007KT P6SM FEW025 BKN040
     FM310000 21005KT P6SM SCT040 BKN100=



000
FTUS41 KRNK 300921 AAB
TAFLWB
TAF AMD
KLWB 300921Z 3009/3106 00000KT P6SM SCT020 BKN100
      TEMPO 3010/3012 BKN020
     FM301500 22006KT P6SM SCT025 BKN050
     FM302300 21003KT P6SM SCT050 BKN100=



000
FTUS41 KRNK 300824 AAA
TAFLWB
TAF AMD
KLWB 300824Z 3008/3106 00000KT P6SM BKN020
      TEMPO 3008/3012 SCT020
     FM301500 22006KT P6SM SCT025 BKN050
     FM302300 21003KT P6SM SCT050 BKN100=



000
FTUS41 KRNK 300824 AAA
TAFLWB
TAF AMD
KLWB 300824Z 3008/3106 00000KT P6SM BKN020
      TEMPO 3008/3012 SCT020
     FM301500 22006KT P6SM SCT025 BKN050
     FM302300 21003KT P6SM SCT050 BKN100=



000
FTUS41 KRNK 300820 AAB
TAFLYH
TAF AMD
KLYH 300820Z 3008/3106 VRB03KT P6SM BKN015 OVC040
     FM301700 19006KT P6SM OVC035
     FM302000 19005KT P6SM SCT040
     FM310100 18003KT P6SM SCT250=



000
FTUS41 KRNK 300820 AAB
TAFLYH
TAF AMD
KLYH 300820Z 3008/3106 VRB03KT P6SM BKN015 OVC040
     FM301700 19006KT P6SM OVC035
     FM302000 19005KT P6SM SCT040
     FM310100 18003KT P6SM SCT250=



000
FTUS41 KRNK 300819 AAB
TAFROA
TAF AMD
KROA 300819Z 3008/3106 12005KT P6SM BKN015 OVC028
      TEMPO 3008/3012 SCT015 OVC028
     FM301600 16006KT P6SM SCT015 OVC035
     FM301900 15007KT P6SM SCT045
     FM310200 18003KT P6SM SCT250=



000
FTUS41 KRNK 300819 AAB
TAFROA
TAF AMD
KROA 300819Z 3008/3106 12005KT P6SM BKN015 OVC028
      TEMPO 3008/3012 SCT015 OVC028
     FM301600 16006KT P6SM SCT015 OVC035
     FM301900 15007KT P6SM SCT045
     FM310200 18003KT P6SM SCT250=



000
FTUS41 KRNK 300700 AAA
TAFROA
TAF AMD
KROA 300700Z 3007/3106 12005KT P6SM BKN014 OVC028
     FM301600 16006KT P6SM SCT015 OVC035
     FM301900 15007KT P6SM SCT045
     FM310200 18003KT P6SM SCT250=



000
FTUS41 KRNK 300700 AAA
TAFROA
TAF AMD
KROA 300700Z 3007/3106 12005KT P6SM BKN014 OVC028
     FM301600 16006KT P6SM SCT015 OVC035
     FM301900 15007KT P6SM SCT045
     FM310200 18003KT P6SM SCT250=



000
FTUS41 KRNK 300635 AAA
TAFLYH
TAF AMD
KLYH 300635Z 3007/3106 VRB03KT P6SM BKN025 OVC040
     FM300800 VRB03KT 4SM BR OVC015
     FM301700 19006KT P6SM OVC035
     FM302000 19005KT P6SM SCT040
     FM310100 18003KT P6SM SCT250=



000
FTUS41 KRNK 300635 AAA
TAFLYH
TAF AMD
KLYH 300635Z 3007/3106 VRB03KT P6SM BKN025 OVC040
     FM300800 VRB03KT 4SM BR OVC015
     FM301700 19006KT P6SM OVC035
     FM302000 19005KT P6SM SCT040
     FM310100 18003KT P6SM SCT250=



000
FTUS41 KRNK 300634 AAA
TAFDAN
TAF AMD
KDAN 300634Z 3007/3106 08003KT P6SM -SHRA OVC012
     FM300900 VRB03KT 2SM BR OVC009
     FM301300 VRB03KT 4SM BR OVC018
     FM301600 20005KT P6SM BKN035
     FM302300 18003KT P6SM SCT250
      AMD NOT SKED=



000
FTUS41 KRNK 300634 AAA
TAFDAN
TAF AMD
KDAN 300634Z 3007/3106 08003KT P6SM -SHRA OVC012
     FM300900 VRB03KT 2SM BR OVC009
     FM301300 VRB03KT 4SM BR OVC018
     FM301600 20005KT P6SM BKN035
     FM302300 18003KT P6SM SCT250
      AMD NOT SKED=



000
FTUS41 KRNK 300531
TAFROA
TAF
KROA 300531Z 3006/3106 11005KT P6SM BKN035
     FM300900 12003KT 5SM BR OVC015
     FM301600 16006KT P6SM SCT015 OVC035
     FM301900 15007KT P6SM SCT045
     FM310200 18003KT P6SM SCT250=



000
FTUS41 KRNK 300531
TAFLYH
TAF
KLYH 300531Z 3006/3106 VRB03KT P6SM SCT018 OVC040
     FM300800 VRB03KT 4SM BR OVC015
     FM301700 19006KT P6SM OVC035
     FM302000 19005KT P6SM SCT040
     FM310100 18003KT P6SM SCT250=



000
FTUS41 KRNK 300531
TAFDAN
TAF
KDAN 300531Z 3006/3106 08003KT P6SM OVC018
     FM300900 VRB03KT 2SM BR OVC009
     FM301300 VRB03KT 4SM BR OVC018
     FM301600 20005KT P6SM BKN035
     FM302300 18003KT P6SM SCT250
      AMD NOT SKED=



000
FTUS41 KRNK 300531
TAFBLF
TAF
KBLF 300531Z 3006/3106 17005KT P6SM SCT015 BKN070
      TEMPO 3008/3012 BKN015
     FM301400 21007KT P6SM FEW025 BKN040
     FM310000 21005KT P6SM SCT040 BKN100=



000
FTUS41 KRNK 300531
TAFROA
TAF
KROA 300531Z 3006/3106 11005KT P6SM BKN035
     FM300900 12003KT 5SM BR OVC015
     FM301600 16006KT P6SM SCT015 OVC035
     FM301900 15007KT P6SM SCT045
     FM310200 18003KT P6SM SCT250=



000
FTUS41 KRNK 300531
TAFLYH
TAF
KLYH 300531Z 3006/3106 VRB03KT P6SM SCT018 OVC040
     FM300800 VRB03KT 4SM BR OVC015
     FM301700 19006KT P6SM OVC035
     FM302000 19005KT P6SM SCT040
     FM310100 18003KT P6SM SCT250=



000
FTUS41 KRNK 300531
TAFLWB
TAF
KLWB 300531Z 3006/3106 00000KT P6SM BKN020
      TEMPO 3008/3012 4SM BR SCT020
     FM301500 22006KT P6SM SCT025 BKN050
     FM302300 21003KT P6SM SCT050 BKN100=



000
FTUS41 KRNK 300531
TAFBLF
TAF
KBLF 300531Z 3006/3106 17005KT P6SM SCT015 BKN070
      TEMPO 3008/3012 BKN015
     FM301400 21007KT P6SM FEW025 BKN040
     FM310000 21005KT P6SM SCT040 BKN100=



000
FTUS41 KRNK 300531
TAFDAN
TAF
KDAN 300531Z 3006/3106 08003KT P6SM OVC018
     FM300900 VRB03KT 2SM BR OVC009
     FM301300 VRB03KT 4SM BR OVC018
     FM301600 20005KT P6SM BKN035
     FM302300 18003KT P6SM SCT250
      AMD NOT SKED=



000
FTUS41 KRNK 300433 AAA
TAFLYH
TAF AMD
KLYH 300433Z 3005/3024 16006KT P6SM BKN045
     FM300800 00000KT 4SM BR OVC020
     FM301600 15005KT P6SM BKN025
     FM302100 17006KT P6SM SCT040=



000
FTUS41 KRNK 300432 AAA
TAFROA
TAF AMD
KROA 300432Z 3005/3024 15008KT P6SM BKN035
     FM300800 00000KT 5SM BR OVC020
     FM301500 15003KT 6SM BR SCT015 BKN025
     FM301700 14005KT P6SM SCT025
     FM302000 15007KT P6SM SCT045=



000
FTUS41 KRNK 300432 AAA
TAFROA
TAF AMD
KROA 300432Z 3005/3024 15008KT P6SM BKN035
     FM300800 00000KT 5SM BR OVC020
     FM301500 15003KT 6SM BR SCT015 BKN025
     FM301700 14005KT P6SM SCT025
     FM302000 15007KT P6SM SCT045=



000
FTUS41 KRNK 300431 AAA
TAFBLF
TAF AMD
KBLF 300431Z 3005/3024 15005KT P6SM SCT015 BKN070
     FM300800 15004KT 5SM BR BKN020
     FM301400 22006KT P6SM FEW025 BKN040
     FM301800 21008KT P6SM SCT040 SCT100=



000
FTUS41 KRNK 300431 AAA
TAFBLF
TAF AMD
KBLF 300431Z 3005/3024 15005KT P6SM SCT015 BKN070
     FM300800 15004KT 5SM BR BKN020
     FM301400 22006KT P6SM FEW025 BKN040
     FM301800 21008KT P6SM SCT040 SCT100=



000
FTUS41 KRNK 292323
TAFDAN
TAF
KDAN 292323Z 3000/3024 00000KT P6SM OVC035
     FM300300 07003KT P6SM SCT025
     FM300600 08003KT 4SM BR OVC015
     FM300800 VRB03KT 2SM BR VCSH OVC012
     FM301200 VRB03KT 4SM BR OVC018
     FM301500 22005KT 6SM BR BKN025
     FM301800 20007KT P6SM SCT045
      AMD NOT SKED=



000
FTUS41 KRNK 292323
TAFROA
TAF
KROA 292323Z 3000/3024 15008KT P6SM BKN035
     FM300200 VRB03KT P6SM BKN030
     FM300800 00000KT 6SM BR OVC025
     FM301000 00000KT 4SM BR OVC015
     FM301500 15003KT 6SM BR SCT015 BKN025
     FM301700 14005KT P6SM SCT025
     FM302000 15007KT P6SM SCT045=



000
FTUS41 KRNK 292323
TAFBLF
TAF
KBLF 292323Z 3000/3024 VRB03KT P6SM SCT035 BKN100
     FM300300 15005KT P6SM BKN025
     FM300800 15004KT 5SM BR BKN020
     FM301400 22006KT P6SM FEW025 BKN040
     FM301800 21008KT P6SM SCT040 SCT100=



000
FTUS41 KRNK 292323
TAFLWB
TAF
KLWB 292323Z 3000/3024 15005KT P6SM SCT100
     FM300300 00000KT P6SM SCT035 BKN080
     FM300600 00000KT 2SM BR OVC020
     FM301300 00000KT 5SM BR OVC025
     FM301500 21005KT P6SM SCT025 BKN050
     FM301900 21007KT P6SM SCT050=



000
FTUS41 KRNK 292323
TAFLYH
TAF
KLYH 292323Z 3000/3024 16006KT P6SM BKN030
     FM300400 00000KT P6SM BKN020
     FM300800 00000KT 4SM BR OVC025
     FM301000 00000KT 4SM BR OVC015
     FM301400 13003KT 5SM BR OVC020
     FM301600 15005KT P6SM BKN025
     FM302100 17006KT P6SM SCT040=



000
FTUS41 KRNK 292323
TAFDAN
TAF
KDAN 292323Z 3000/3024 00000KT P6SM OVC035
     FM300300 07003KT P6SM SCT025
     FM300600 08003KT 4SM BR OVC015
     FM300800 VRB03KT 2SM BR VCSH OVC012
     FM301200 VRB03KT 4SM BR OVC018
     FM301500 22005KT 6SM BR BKN025
     FM301800 20007KT P6SM SCT045
      AMD NOT SKED=



000
FTUS41 KRNK 292323
TAFROA
TAF
KROA 292323Z 3000/3024 15008KT P6SM BKN035
     FM300200 VRB03KT P6SM BKN030
     FM300800 00000KT 6SM BR OVC025
     FM301000 00000KT 4SM BR OVC015
     FM301500 15003KT 6SM BR SCT015 BKN025
     FM301700 14005KT P6SM SCT025
     FM302000 15007KT P6SM SCT045=



000
FTUS41 KRNK 292323
TAFLYH
TAF
KLYH 292323Z 3000/3024 16006KT P6SM BKN030
     FM300400 00000KT P6SM BKN020
     FM300800 00000KT 4SM BR OVC025
     FM301000 00000KT 4SM BR OVC015
     FM301400 13003KT 5SM BR OVC020
     FM301600 15005KT P6SM BKN025
     FM302100 17006KT P6SM SCT040=



000
FTUS41 KRNK 292323
TAFLWB
TAF
KLWB 292323Z 3000/3024 15005KT P6SM SCT100
     FM300300 00000KT P6SM SCT035 BKN080
     FM300600 00000KT 2SM BR OVC020
     FM301300 00000KT 5SM BR OVC025
     FM301500 21005KT P6SM SCT025 BKN050
     FM301900 21007KT P6SM SCT050=



000
FTUS41 KRNK 292323
TAFBLF
TAF
KBLF 292323Z 3000/3024 VRB03KT P6SM SCT035 BKN100
     FM300300 15005KT P6SM BKN025
     FM300800 15004KT 5SM BR BKN020
     FM301400 22006KT P6SM FEW025 BKN040
     FM301800 21008KT P6SM SCT040 SCT100=



    US Dept of Commerce
    National Oceanic and Atmospheric Administration
    National Weather Service
    1325 East West Highway
    Silver Spring, MD 20910
    Page Author: NWS Internet Services Team
Disclaimer
Information Quality
Credits
Glossary
Privacy Policy
Freedom of Information Act (FOIA)
About Us
Career Opportunities